createdAt,value
2017-12-15T00:00:41.991Z,9.53
2017-12-15T00:03:10.007Z,8.77
2017-12-15T00:05:38.175Z,9.80
2017-12-15T00:08:06.994Z,9.20
2017-12-15T00:10:35.072Z,8.37
2017-12-15T00:13:03.284Z,8.80
2017-12-15T00:15:31.307Z,9.30
2017-12-15T00:17:59.331Z,10.40
2017-12-15T00:20:27.528Z,9.77
2017-12-15T00:22:56.307Z,10.20
2017-12-15T00:25:25.125Z,9.50
2017-12-15T00:27:53.301Z,10.53
2017-12-15T00:30:21.939Z,10.73
2017-12-15T00:32:50.145Z,9.63
2017-12-15T00:35:19.092Z,10.33
2017-12-15T00:37:47.176Z,10.80
2017-12-15T00:40:15.194Z,10.33
2017-12-15T00:42:43.351Z,9.10
2017-12-15T00:45:11.444Z,7.77
2017-12-15T00:47:39.516Z,6.77
2017-12-15T00:50:07.719Z,6.73
2017-12-15T00:52:35.738Z,6.60
2017-12-15T00:55:03.770Z,5.83
2017-12-15T00:57:31.937Z,7.17
2017-12-15T00:59:59.975Z,6.13
2017-12-15T01:02:28.747Z,6.00
2017-12-15T01:04:56.948Z,6.97
2017-12-15T01:07:25.057Z,6.73
2017-12-15T01:09:53.180Z,7.23
2017-12-15T01:12:22.083Z,6.00
2017-12-15T01:14:50.871Z,7.93
2017-12-15T01:17:19.643Z,7.77
2017-12-15T01:19:47.815Z,7.50
2017-12-15T01:22:16.603Z,8.87
2017-12-15T01:24:44.639Z,8.33
2017-12-15T01:27:12.812Z,9.63
2017-12-15T01:29:40.823Z,8.00
2017-12-15T01:32:08.859Z,8.03
2017-12-15T01:34:37.186Z,9.67
2017-12-15T01:37:05.992Z,9.60
2017-12-15T01:39:34.056Z,9.37
2017-12-15T01:42:03.032Z,8.70
2017-12-15T01:44:31.107Z,8.80
2017-12-15T01:46:59.149Z,8.30
2017-12-15T01:49:27.294Z,8.40
2017-12-15T01:51:55.358Z,10.93
2017-12-15T01:54:23.440Z,8.90
2017-12-15T01:56:51.585Z,8.70
2017-12-15T01:59:20.397Z,10.43
2017-12-15T02:01:48.415Z,9.47
2017-12-15T02:04:16.595Z,8.00
2017-12-15T02:06:44.664Z,8.43
2017-12-15T02:09:12.724Z,8.40
2017-12-15T02:11:40.859Z,8.67
2017-12-15T02:14:08.909Z,7.87
2017-12-15T02:16:37.712Z,8.30
2017-12-15T02:19:06.589Z,8.27
2017-12-15T02:21:35.336Z,7.33
2017-12-15T02:24:03.358Z,7.73
2017-12-15T02:26:32.289Z,7.00
2017-12-15T02:29:00.356Z,6.83
2017-12-15T02:31:29.897Z,6.47
2017-12-15T02:33:58.345Z,6.60
2017-12-15T02:36:26.564Z,6.27
2017-12-15T02:38:54.638Z,6.17
2017-12-15T02:41:22.779Z,5.83
2017-12-15T02:43:50.800Z,7.17
2017-12-15T02:46:19.606Z,5.57
2017-12-15T02:48:48.641Z,6.07
2017-12-15T02:51:16.688Z,6.60
2017-12-15T02:53:44.761Z,5.77
2017-12-15T02:56:12.902Z,6.40
2017-12-15T02:58:40.979Z,6.03
2017-12-15T03:01:09.762Z,6.60
2017-12-15T03:03:38.648Z,5.00
2017-12-15T03:06:06.712Z,5.37
2017-12-15T03:08:34.780Z,5.73
2017-12-15T03:11:02.911Z,5.73
2017-12-15T03:13:30.976Z,5.20
2017-12-15T03:15:58.986Z,5.93
2017-12-15T03:18:27.119Z,5.47
2017-12-15T03:20:55.168Z,5.87
2017-12-15T03:23:23.935Z,5.93
2017-12-15T03:25:52.132Z,4.97
2017-12-15T03:28:20.930Z,5.27
2017-12-15T03:30:49.713Z,6.00
2017-12-15T03:33:18.603Z,5.03
2017-12-15T03:35:46.652Z,5.53
2017-12-15T03:38:14.815Z,5.17
2017-12-15T03:40:42.989Z,6.90
2017-12-15T03:43:11.003Z,5.07
2017-12-15T03:45:39.805Z,5.40
2017-12-15T03:48:08.730Z,6.20
2017-12-15T03:50:36.884Z,5.50
2017-12-15T03:53:05.018Z,5.40
2017-12-15T03:55:33.200Z,6.03
2017-12-15T03:58:01.219Z,4.70
2017-12-15T04:00:29.320Z,5.43
2017-12-15T04:02:57.438Z,5.80
2017-12-15T04:05:26.191Z,4.90
2017-12-15T04:07:54.301Z,5.40
2017-12-15T04:10:23.162Z,6.40
2017-12-15T04:12:51.256Z,4.40
2017-12-15T04:15:20.078Z,5.63
2017-12-15T04:17:48.230Z,5.10
2017-12-15T04:20:17.015Z,5.30
2017-12-15T04:22:45.836Z,5.20
2017-12-15T04:25:14.064Z,5.10
2017-12-15T04:27:42.900Z,5.50
2017-12-15T04:30:13.026Z,5.80
2017-12-15T04:32:44.465Z,6.37
2017-12-15T04:35:12.805Z,5.57
2017-12-15T04:37:44.569Z,5.47
2017-12-15T04:40:15.701Z,6.27
2017-12-15T04:42:43.837Z,5.70
2017-12-15T04:45:11.972Z,5.73
2017-12-15T04:47:43.079Z,6.90
2017-12-15T04:50:12.822Z,5.83
2017-12-15T04:52:41.243Z,5.73
2017-12-15T04:55:09.359Z,5.90
2017-12-15T04:57:41.184Z,5.97
2017-12-15T05:00:09.470Z,5.47
2017-12-15T05:02:39.171Z,6.40
2017-12-15T05:05:07.500Z,5.90
2017-12-15T05:07:36.336Z,5.97
2017-12-15T05:10:04.510Z,6.50
2017-12-15T05:25:30.648Z,6.63
2017-12-15T05:27:58.740Z,7.20
2017-12-15T05:30:26.844Z,7.30
2017-12-15T05:32:55.798Z,6.40
2017-12-15T05:35:23.821Z,6.40
2017-12-15T05:37:52.650Z,7.30
2017-12-15T05:40:20.935Z,6.70
2017-12-15T05:42:48.967Z,6.30
2017-12-15T05:45:17.065Z,7.77
2017-12-15T05:47:45.222Z,6.83
2017-12-15T05:50:13.276Z,8.03
2017-12-15T05:52:42.064Z,7.33
2017-12-15T05:55:10.938Z,6.20
2017-12-15T05:57:39.021Z,7.53
2017-12-15T06:00:07.034Z,7.00
2017-12-15T06:02:35.187Z,6.87
2017-12-15T06:05:04.009Z,5.70
2017-12-15T06:07:32.047Z,7.13
2017-12-15T06:10:00.922Z,6.80
2017-12-15T06:12:28.972Z,7.90
2017-12-15T06:14:57.107Z,8.83
2017-12-15T06:17:25.268Z,9.37
2017-12-15T06:19:53.337Z,10.20
2017-12-15T06:22:22.144Z,10.70
2017-12-15T06:24:50.313Z,12.60
2017-12-15T06:27:18.337Z,11.23
2017-12-15T06:29:46.389Z,11.10
2017-12-15T06:32:14.645Z,12.13
2017-12-15T06:34:42.843Z,11.97
2017-12-15T06:37:10.864Z,13.10
2017-12-15T06:39:39.060Z,12.70
2017-12-15T06:42:07.144Z,17.03
2017-12-15T06:44:35.192Z,14.97
2017-12-15T06:47:04.107Z,14.33
2017-12-15T06:49:32.146Z,12.43
2017-12-15T06:52:00.944Z,11.13
2017-12-15T06:54:29.868Z,12.40
2017-12-15T06:56:57.947Z,12.70
2017-12-15T06:59:25.966Z,12.63
2017-12-15T07:01:54.881Z,9.87
2017-12-15T07:04:22.956Z,10.70
2017-12-15T07:06:51.012Z,9.00
2017-12-15T07:09:19.883Z,8.90
2017-12-15T07:11:47.954Z,8.10
2017-12-15T07:14:16.025Z,6.73
2017-12-15T07:16:44.155Z,8.30
2017-12-15T07:19:12.166Z,7.70
2017-12-15T07:21:40.195Z,8.13
2017-12-15T07:24:08.339Z,8.10
2017-12-15T07:26:37.128Z,6.80
2017-12-15T07:29:05.946Z,8.13
2017-12-15T07:31:34.116Z,7.83
2017-12-15T07:34:02.177Z,6.40
2017-12-15T07:36:31.709Z,8.00
2017-12-15T07:39:00.024Z,7.63
2017-12-15T07:41:28.129Z,8.17
2017-12-15T07:43:56.915Z,7.80
2017-12-15T07:46:25.806Z,7.43
2017-12-15T07:48:54.575Z,8.33
2017-12-15T07:51:22.705Z,7.87
2017-12-15T07:53:50.882Z,6.80
2017-12-15T07:56:18.951Z,7.23
2017-12-15T07:58:47.024Z,9.17
2017-12-15T08:01:15.227Z,7.33
2017-12-15T08:03:43.308Z,6.37
2017-12-15T08:06:12.159Z,7.50
2017-12-15T08:08:40.311Z,8.03
2017-12-15T08:11:09.140Z,9.07
2017-12-15T08:13:37.187Z,7.23
2017-12-15T08:16:05.376Z,7.60
2017-12-15T08:18:33.439Z,6.60
2017-12-15T08:21:01.499Z,6.37
2017-12-15T08:23:30.399Z,8.47
2017-12-15T08:25:58.477Z,7.50
2017-12-15T08:28:26.541Z,6.73
2017-12-15T08:30:55.490Z,7.70
2017-12-15T08:33:23.540Z,8.37
2017-12-15T08:35:51.593Z,8.07
2017-12-15T08:38:19.809Z,6.80
2017-12-15T08:40:47.875Z,7.33
2017-12-15T08:43:15.961Z,7.13
2017-12-15T08:45:44.289Z,7.63
2017-12-15T08:48:12.598Z,7.00
2017-12-15T08:50:40.781Z,7.10
2017-12-15T08:53:08.940Z,7.83
2017-12-15T08:55:37.018Z,7.40
2017-12-15T08:58:05.108Z,8.30
2017-12-15T09:00:33.284Z,6.33
2017-12-15T09:03:01.364Z,7.03
2017-12-15T09:05:29.391Z,7.10
2017-12-15T09:07:57.571Z,8.53
2017-12-15T09:10:25.659Z,8.70
2017-12-15T09:12:53.764Z,7.40
2017-12-15T09:15:21.967Z,7.37
2017-12-15T09:17:50.800Z,6.80
2017-12-15T09:20:18.868Z,7.37
2017-12-15T09:22:47.039Z,7.20
2017-12-15T09:25:15.083Z,6.90
2017-12-15T09:27:43.896Z,6.53
2017-12-15T09:30:12.092Z,7.10
2017-12-15T09:32:40.153Z,7.00
2017-12-15T09:35:08.195Z,7.47
2017-12-15T09:37:37.098Z,7.90
2017-12-15T09:40:05.181Z,7.33
2017-12-15T09:42:33.269Z,6.73
2017-12-15T09:45:01.411Z,6.20
2017-12-15T09:47:30.332Z,7.20
2017-12-15T09:49:58.384Z,6.80
2017-12-15T09:52:26.526Z,7.57
2017-12-15T09:54:54.580Z,7.47
2017-12-15T09:57:22.632Z,6.63
2017-12-15T09:59:50.816Z,7.07
2017-12-15T10:02:18.891Z,7.00
2017-12-15T10:04:47.944Z,6.83
2017-12-15T10:07:16.102Z,7.97
2017-12-15T10:09:44.875Z,7.13
2017-12-15T10:12:12.894Z,7.20
2017-12-15T10:14:41.076Z,7.80
2017-12-15T10:17:09.129Z,8.30
2017-12-15T10:19:37.139Z,7.70
2017-12-15T10:22:05.317Z,6.27
2017-12-15T10:24:33.405Z,7.20
2017-12-15T10:27:01.545Z,6.30
2017-12-15T10:29:29.727Z,7.40
2017-12-15T10:31:57.746Z,8.97
2017-12-15T10:34:26.510Z,7.90
2017-12-15T10:36:54.643Z,8.90
2017-12-15T10:39:22.696Z,8.00
2017-12-15T10:41:51.489Z,7.90
2017-12-15T10:44:20.371Z,7.53
2017-12-15T10:46:49.176Z,8.33
2017-12-15T10:49:17.331Z,7.60
2017-12-15T10:51:46.232Z,7.83
2017-12-15T10:54:15.041Z,7.63
2017-12-15T10:56:43.089Z,6.90
2017-12-15T10:59:12.019Z,7.27
2017-12-15T11:01:40.027Z,8.37
2017-12-15T11:04:08.092Z,7.37
2017-12-15T11:06:36.257Z,8.27
2017-12-15T11:09:04.557Z,6.63
2017-12-15T11:11:33.269Z,7.17
2017-12-15T11:14:02.143Z,6.53
2017-12-15T11:16:30.217Z,7.80
2017-12-15T11:18:58.235Z,10.20
2017-12-15T11:21:26.382Z,7.00
2017-12-15T11:23:55.155Z,7.60
2017-12-15T11:26:23.175Z,6.10
2017-12-15T11:28:51.355Z,6.50
2017-12-15T11:31:19.374Z,8.83
2017-12-15T11:33:47.440Z,8.13
2017-12-15T11:36:15.645Z,7.67
2017-12-15T11:38:44.461Z,7.03
2017-12-15T11:41:12.546Z,8.10
2017-12-15T11:43:40.691Z,7.23
2017-12-15T11:46:08.790Z,6.10
2017-12-15T11:48:38.888Z,7.50
2017-12-15T11:51:14.134Z,7.87
2017-12-15T11:53:42.419Z,7.93
2017-12-15T11:56:10.537Z,7.40
2017-12-15T11:58:41.370Z,6.87
2017-12-15T12:01:09.591Z,7.50
2017-12-15T12:03:37.663Z,6.70
2017-12-15T12:06:07.852Z,7.60
2017-12-15T12:08:37.764Z,6.70
2017-12-15T12:11:07.008Z,6.80
2017-12-15T12:13:38.370Z,6.87
2017-12-15T12:16:07.623Z,6.90
2017-12-15T12:18:36.620Z,5.60
2017-12-15T12:21:05.461Z,6.40
2017-12-15T12:23:33.732Z,6.40
2017-12-15T12:26:01.821Z,6.83
2017-12-15T12:28:29.879Z,6.80
2017-12-15T12:31:01.057Z,6.90
2017-12-15T12:33:33.093Z,6.30
2017-12-15T12:36:01.329Z,6.50
2017-12-15T12:38:30.140Z,6.70
2017-12-15T12:40:58.188Z,7.30
2017-12-15T12:43:27.100Z,7.00
2017-12-15T12:45:55.944Z,6.30
2017-12-15T12:48:23.997Z,6.77
2017-12-15T12:50:52.176Z,8.13
2017-12-15T12:53:20.331Z,6.80
2017-12-15T12:55:48.385Z,6.90
2017-12-15T12:58:16.581Z,6.37
2017-12-15T13:00:44.661Z,7.13
2017-12-15T13:03:12.717Z,7.23
2017-12-15T13:05:41.039Z,6.80
2017-12-15T13:08:09.268Z,6.97
2017-12-15T13:10:37.319Z,6.90
2017-12-15T13:13:06.194Z,6.77
2017-12-15T13:15:34.225Z,7.00
2017-12-15T13:18:02.352Z,7.20
2017-12-15T13:20:30.503Z,8.30
2017-12-15T13:22:58.608Z,7.80
2017-12-15T13:25:27.371Z,7.40
2017-12-15T13:27:55.531Z,8.03
2017-12-15T13:30:23.886Z,6.37
2017-12-15T13:32:51.952Z,7.20
2017-12-15T13:35:20.114Z,6.90
2017-12-15T13:37:48.948Z,8.00
2017-12-15T13:40:17.033Z,8.87
2017-12-15T13:42:45.217Z,8.37
2017-12-15T13:45:13.375Z,7.83
2017-12-15T13:47:41.590Z,10.17
2017-12-15T13:50:10.500Z,12.20
2017-12-15T13:52:38.602Z,12.63
2017-12-15T13:55:06.759Z,11.40
2017-12-15T13:57:34.949Z,12.30
2017-12-15T14:00:03.011Z,11.80
2017-12-15T14:02:31.026Z,10.27
2017-12-15T14:04:59.158Z,10.60
2017-12-15T14:07:27.289Z,9.97
2017-12-15T14:09:55.298Z,7.77
2017-12-15T14:12:23.436Z,7.13
2017-12-15T14:14:52.202Z,7.80
2017-12-15T14:17:20.219Z,7.20
2017-12-15T14:19:49.111Z,8.33
2017-12-15T14:22:17.879Z,8.07
2017-12-15T14:24:46.655Z,9.13
2017-12-15T14:27:14.851Z,8.67
2017-12-15T14:29:43.627Z,10.73
2017-12-15T14:32:11.757Z,9.97
2017-12-15T14:34:39.952Z,9.93
2017-12-15T14:37:08.027Z,10.07
2017-12-15T14:39:36.931Z,10.60
2017-12-15T14:42:05.144Z,11.10
2017-12-15T14:44:33.914Z,9.20
2017-12-15T14:47:02.715Z,10.17
2017-12-15T14:49:31.607Z,9.07
2017-12-15T14:52:00.367Z,9.97
2017-12-15T14:54:28.395Z,9.20
2017-12-15T14:56:56.789Z,10.07
2017-12-15T14:59:24.823Z,11.37
2017-12-15T15:01:53.639Z,10.00
2017-12-15T15:04:21.816Z,10.53
2017-12-15T15:06:49.889Z,11.23
2017-12-15T15:09:17.919Z,10.70
2017-12-15T15:11:46.088Z,10.70
2017-12-15T15:14:14.325Z,10.03
2017-12-15T15:16:42.355Z,11.13
2017-12-15T15:19:11.235Z,10.67
2017-12-15T15:21:39.999Z,11.10
2017-12-15T15:24:08.031Z,11.63
2017-12-15T15:26:36.175Z,10.20
2017-12-15T15:29:04.932Z,12.27
2017-12-15T15:31:32.957Z,12.43
2017-12-15T15:34:01.144Z,11.50
2017-12-15T15:36:29.225Z,11.33
2017-12-15T15:38:57.372Z,12.00
2017-12-15T15:41:26.541Z,10.70
2017-12-15T15:43:54.827Z,11.13
2017-12-15T15:46:23.029Z,11.13
2017-12-15T15:48:52.053Z,11.70
2017-12-15T15:51:23.836Z,10.70
2017-12-15T15:53:55.103Z,10.53
2017-12-15T15:56:24.312Z,10.13
2017-12-15T15:58:53.284Z,7.10
2017-12-15T16:01:21.438Z,8.43
2017-12-15T16:03:49.734Z,6.93
2017-12-15T16:06:18.073Z,8.37
2017-12-15T16:08:46.372Z,9.57
2017-12-15T16:11:14.713Z,9.30
2017-12-15T16:13:43.556Z,9.97
2017-12-15T16:16:15.691Z,8.50
2017-12-15T16:18:47.368Z,9.90
2017-12-15T16:21:16.389Z,8.30
2017-12-15T16:23:44.571Z,7.60
2017-12-15T16:26:13.679Z,7.50
2017-12-15T16:28:48.571Z,6.70
2017-12-15T16:31:19.088Z,6.33
2017-12-15T16:33:47.445Z,6.77
2017-12-15T16:36:15.571Z,7.43
2017-12-15T16:38:43.937Z,5.60
2017-12-15T16:41:12.090Z,5.60
2017-12-15T16:43:40.197Z,4.97
2017-12-15T16:46:08.478Z,5.67
2017-12-15T16:48:36.615Z,5.23
2017-12-15T16:51:04.876Z,5.53
2017-12-15T16:53:33.291Z,6.20
2017-12-15T16:56:01.466Z,5.53
2017-12-15T16:58:29.804Z,5.77
2017-12-15T17:00:59.084Z,5.37
2017-12-15T17:03:27.363Z,6.37
2017-12-15T17:05:55.688Z,6.27
2017-12-15T17:08:24.091Z,6.97
2017-12-15T17:10:52.223Z,5.97
2017-12-15T17:13:20.267Z,6.13
2017-12-15T17:15:48.515Z,5.63
2017-12-15T17:18:16.618Z,6.67
2017-12-15T17:20:44.689Z,4.83
2017-12-15T17:23:12.903Z,5.93
2017-12-15T17:25:41.158Z,6.60
2017-12-15T17:28:10.199Z,5.10
2017-12-15T17:30:38.410Z,4.87
2017-12-15T17:33:06.555Z,5.73
2017-12-15T17:35:34.589Z,5.70
2017-12-15T17:38:03.519Z,5.33
2017-12-15T17:40:31.596Z,6.03
2017-12-15T17:42:59.643Z,6.80
2017-12-15T17:45:27.891Z,4.73
2017-12-15T17:47:56.675Z,5.93
2017-12-15T17:50:25.512Z,5.50
2017-12-15T17:52:53.690Z,5.90
2017-12-15T17:55:21.742Z,5.70
2017-12-15T17:57:49.795Z,4.97
2017-12-15T18:00:18.699Z,5.53
2017-12-15T18:02:46.867Z,4.97
2017-12-15T18:05:15.640Z,6.17
2017-12-15T18:07:44.589Z,6.13
2017-12-15T18:10:12.676Z,5.77
2017-12-15T18:12:40.710Z,6.00
2017-12-15T18:15:09.675Z,5.83
2017-12-15T18:17:38.513Z,6.33
2017-12-15T18:20:06.600Z,5.77
2017-12-15T18:22:34.759Z,5.30
2017-12-15T18:25:02.832Z,5.93
2017-12-15T18:27:30.904Z,5.57
2017-12-15T18:29:59.063Z,5.93
2017-12-15T18:32:27.148Z,5.20
2017-12-15T18:34:55.178Z,6.10
2017-12-15T18:37:24.086Z,5.63
2017-12-15T18:39:52.891Z,4.83
2017-12-15T18:42:21.008Z,6.40
2017-12-15T18:44:49.215Z,5.53
2017-12-15T18:47:17.995Z,5.20
2017-12-15T18:49:46.031Z,5.10
2017-12-15T18:52:15.055Z,5.73
2017-12-15T18:54:43.321Z,5.37
2017-12-15T18:57:11.973Z,5.03
2017-12-15T18:59:41.208Z,6.20
2017-12-15T19:02:10.163Z,6.07
2017-12-15T19:04:38.779Z,5.60
2017-12-15T19:07:07.193Z,5.80
2017-12-15T19:09:36.043Z,5.47
2017-12-15T19:12:04.573Z,6.30
2017-12-15T19:14:33.956Z,4.80
2017-12-15T19:17:02.435Z,4.63
2017-12-15T19:19:32.175Z,5.20
2017-12-15T19:22:00.650Z,5.00
2017-12-15T19:24:29.485Z,6.10
2017-12-15T19:26:58.468Z,4.60
2017-12-15T19:29:26.696Z,4.77
2017-12-15T19:31:54.952Z,5.23
2017-12-15T19:34:24.395Z,5.20
2017-12-15T19:36:54.052Z,5.57
2017-12-15T19:39:23.087Z,4.83
2017-12-15T19:41:52.133Z,5.30
2017-12-15T19:44:21.742Z,5.53
2017-12-15T19:46:50.226Z,5.33
2017-12-15T19:49:18.739Z,5.40
2017-12-15T19:51:47.124Z,5.70
2017-12-15T19:54:16.887Z,5.90
2017-12-15T19:56:45.835Z,5.70
2017-12-15T19:59:14.478Z,5.83
2017-12-15T20:01:43.345Z,5.10
2017-12-15T20:04:13.301Z,6.10
2017-12-15T20:06:42.132Z,5.73
2017-12-15T20:09:10.548Z,5.33
2017-12-15T20:11:38.916Z,5.90
2017-12-15T20:14:07.371Z,4.90
2017-12-15T20:16:35.642Z,5.20
2017-12-15T20:19:03.980Z,5.13
2017-12-15T20:21:32.768Z,5.23
2017-12-15T20:24:01.448Z,4.50
2017-12-15T20:26:29.660Z,5.57
2017-12-15T20:28:58.362Z,5.90
2017-12-15T20:31:26.489Z,4.50
2017-12-15T20:33:55.095Z,6.30
2017-12-15T20:36:23.347Z,5.23
2017-12-15T20:38:52.224Z,5.53
2017-12-15T20:41:20.526Z,4.93
2017-12-15T20:43:49.267Z,4.93
2017-12-15T20:46:17.980Z,5.20
2017-12-15T20:48:47.330Z,4.97
2017-12-15T20:51:16.115Z,5.63
2017-12-15T20:53:44.347Z,7.37
2017-12-15T20:56:13.841Z,7.13
2017-12-15T20:58:43.232Z,6.47
2017-12-15T21:01:11.385Z,5.73
2017-12-15T21:03:39.933Z,5.60
2017-12-15T21:06:08.283Z,6.47
2017-12-15T21:08:38.628Z,5.57
2017-12-15T21:11:07.713Z,6.27
2017-12-15T21:13:36.802Z,6.33
2017-12-15T21:16:05.842Z,5.07
2017-12-15T21:18:34.179Z,5.30
2017-12-15T21:21:03.251Z,5.37
2017-12-15T21:23:31.339Z,5.23
2017-12-15T21:25:59.931Z,6.03
2017-12-15T21:28:29.507Z,6.43
2017-12-15T21:31:02.021Z,5.77
2017-12-15T21:33:30.740Z,5.87
2017-12-15T21:35:59.712Z,6.13
2017-12-15T21:38:28.962Z,5.70
2017-12-15T21:40:57.263Z,4.93
2017-12-15T21:43:25.503Z,5.57
2017-12-15T21:45:54.520Z,5.17
2017-12-15T21:48:22.708Z,5.33
2017-12-15T21:50:52.416Z,5.83
2017-12-15T21:53:21.020Z,5.53
2017-12-15T21:55:50.075Z,5.10
2017-12-15T21:58:18.192Z,5.27
2017-12-15T22:00:47.004Z,5.37
2017-12-15T22:03:15.735Z,5.30
2017-12-15T22:05:44.118Z,5.40
2017-12-15T22:08:12.351Z,5.80
2017-12-15T22:10:41.294Z,5.70
2017-12-15T22:13:10.031Z,4.80
2017-12-15T22:15:38.528Z,6.07
2017-12-15T22:18:06.723Z,4.97
2017-12-15T22:20:35.379Z,5.60
2017-12-15T22:23:03.591Z,4.93
2017-12-15T22:25:32.615Z,5.33
2017-12-15T22:28:01.616Z,4.97
2017-12-15T22:30:31.046Z,5.10
2017-12-15T22:32:59.392Z,5.50
2017-12-15T22:35:27.854Z,5.87
2017-12-15T22:37:56.057Z,4.97
2017-12-15T22:40:25.452Z,4.33
2017-12-15T22:42:54.703Z,4.57
2017-12-15T22:45:23.341Z,4.30
2017-12-15T22:47:51.670Z,5.30
2017-12-15T22:50:19.710Z,4.73
2017-12-15T22:52:49.907Z,4.87
2017-12-15T22:55:18.703Z,3.73
2017-12-15T22:57:46.964Z,5.43
2017-12-15T23:00:14.999Z,4.37
2017-12-15T23:02:43.141Z,5.70
2017-12-15T23:05:11.924Z,5.00
2017-12-15T23:07:40.017Z,5.03
2017-12-15T23:10:08.947Z,4.50
2017-12-15T23:12:37.136Z,4.60
2017-12-15T23:15:05.176Z,4.73
2017-12-15T23:17:33.372Z,5.10
2017-12-15T23:20:01.404Z,4.43
2017-12-15T23:22:30.216Z,5.07
2017-12-15T23:24:58.383Z,4.70
2017-12-15T23:27:26.457Z,4.30
2017-12-15T23:29:54.499Z,4.37
2017-12-15T23:32:23.460Z,5.80
2017-12-15T23:34:51.525Z,4.97
2017-12-15T23:37:19.572Z,5.17
2017-12-15T23:39:47.812Z,4.67
2017-12-15T23:42:16.583Z,4.80
2017-12-15T23:44:44.635Z,5.47
2017-12-15T23:47:13.027Z,4.43
2017-12-15T23:49:41.231Z,5.20
2017-12-15T23:52:09.998Z,4.17
2017-12-15T23:54:49.586Z,4.30
2017-12-15T23:57:17.653Z,5.20
2017-12-15T23:59:46.456Z,4.20
